createdAt,value
2022-09-02T00:00:30.344Z,70.34
2022-09-02T00:04:15.370Z,70.25
2022-09-02T00:07:59.492Z,70.46
2022-09-02T00:11:44.754Z,70.60
2022-09-02T00:15:27.523Z,70.79
2022-09-02T00:19:11.103Z,71.01
2022-09-02T00:22:53.961Z,71.04
2022-09-02T00:26:38.474Z,71.17
2022-09-02T00:30:21.311Z,71.50
2022-09-02T00:34:04.814Z,71.51
2022-09-02T00:37:47.559Z,71.51
2022-09-02T00:41:30.829Z,71.76
2022-09-02T00:45:15.050Z,72.01
2022-09-02T00:49:02.885Z,72.32
2022-09-02T00:52:47.561Z,72.31
2022-09-02T00:56:32.070Z,72.61
2022-09-02T01:00:18.860Z,72.71
2022-09-02T01:04:01.714Z,72.90
2022-09-02T01:07:44.969Z,73.16
2022-09-02T01:11:31.977Z,73.37
2022-09-02T01:15:16.554Z,73.34
2022-09-02T01:19:01.227Z,73.51
2022-09-02T01:22:46.252Z,73.82
2022-09-02T01:26:28.984Z,73.79
2022-09-02T01:30:14.449Z,74.07
2022-09-02T01:33:58.121Z,74.07
2022-09-02T01:37:42.164Z,73.93
2022-09-02T01:41:39.461Z,74.33
2022-09-02T01:45:22.416Z,74.52
2022-09-02T01:49:06.033Z,74.66
2022-09-02T01:52:48.916Z,74.87
2022-09-02T01:56:31.722Z,74.84
2022-09-02T02:00:17.584Z,75.30
2022-09-02T02:04:00.918Z,75.28
2022-09-02T02:07:43.785Z,75.67
2022-09-02T02:11:26.543Z,75.51
2022-09-02T02:15:11.691Z,75.49
2022-09-02T02:18:55.914Z,75.76
2022-09-02T02:22:39.213Z,75.65
2022-09-02T02:26:22.097Z,76.16
2022-09-02T02:30:06.400Z,76.35
2022-09-02T02:33:49.171Z,76.07
2022-09-02T02:37:33.347Z,76.42
2022-09-02T02:41:19.019Z,76.60
2022-09-02T02:45:01.827Z,76.96
2022-09-02T02:48:44.607Z,77.19
2022-09-02T02:52:27.397Z,77.17
2022-09-02T02:56:11.543Z,77.53
2022-09-02T02:59:54.326Z,77.74
2022-09-02T03:03:37.283Z,77.92
2022-09-02T03:07:20.020Z,77.99
2022-09-02T03:11:02.989Z,77.95
2022-09-02T03:14:47.092Z,78.39
2022-09-02T03:18:29.848Z,78.60
2022-09-02T03:22:13.160Z,78.92
2022-09-02T03:25:55.942Z,79.02
2022-09-02T03:29:39.020Z,79.34
2022-09-02T03:33:23.235Z,79.61
2022-09-02T03:37:06.164Z,79.86
2022-09-02T03:40:49.006Z,79.79
2022-09-02T03:44:33.174Z,79.90
2022-09-02T03:48:17.124Z,80.18
2022-09-02T03:52:01.323Z,80.41
2022-09-02T03:55:44.371Z,80.76
2022-09-02T03:59:27.288Z,80.73
2022-09-02T04:03:10.115Z,80.52
2022-09-02T04:06:52.928Z,80.76
2022-09-02T04:10:38.257Z,80.63
2022-09-02T04:14:21.094Z,81.25
2022-09-02T04:18:59.205Z,81.29
2022-09-02T04:22:43.718Z,81.36
2022-09-02T04:26:27.893Z,81.37
2022-09-02T04:30:11.773Z,81.60
2022-09-02T04:33:54.557Z,81.78
2022-09-02T04:37:37.401Z,81.93
2022-09-02T04:41:22.580Z,82.06
2022-09-02T04:45:08.035Z,82.21
2022-09-02T04:48:51.424Z,82.38
2022-09-02T04:52:34.140Z,82.71
2022-09-02T04:56:18.988Z,82.81
2022-09-02T05:00:03.789Z,83.16
2022-09-02T05:03:48.713Z,82.96
2022-09-02T05:07:31.496Z,83.12
2022-09-02T05:11:18.480Z,83.25
2022-09-02T05:15:01.649Z,83.59
2022-09-02T05:18:45.026Z,83.02
2022-09-02T05:22:29.520Z,83.20
2022-09-02T05:26:14.106Z,83.12
2022-09-02T05:29:59.606Z,82.99
2022-09-02T05:33:42.977Z,82.31
2022-09-02T05:37:26.627Z,82.71
2022-09-02T05:41:14.603Z,82.78
2022-09-02T05:44:57.356Z,82.36
2022-09-02T05:49:03.405Z,82.34
2022-09-02T05:52:46.949Z,82.09
2022-09-02T05:56:31.037Z,81.61
2022-09-02T06:00:17.664Z,81.69
2022-09-02T06:04:02.350Z,81.20
2022-09-02T06:07:45.107Z,80.78
2022-09-02T06:11:28.827Z,80.59
2022-09-02T06:15:13.551Z,80.53
2022-09-02T06:18:56.299Z,80.27
2022-09-02T06:22:39.057Z,78.71
2022-09-02T06:26:21.917Z,77.68
2022-09-02T06:30:05.303Z,77.01
2022-09-02T06:33:52.889Z,76.60
2022-09-02T06:37:35.702Z,76.22
2022-09-02T06:41:22.829Z,75.08
2022-09-02T06:45:06.428Z,74.83
2022-09-02T06:48:50.889Z,74.99
2022-09-02T06:52:34.328Z,74.44
2022-09-02T06:56:17.135Z,74.31
2022-09-02T07:00:02.469Z,74.00
2022-09-02T07:04:03.324Z,72.74
2022-09-02T07:07:49.994Z,72.42
2022-09-02T07:11:33.201Z,72.41
2022-09-02T07:15:16.091Z,72.22
2022-09-02T07:19:01.224Z,71.32
2022-09-02T07:22:44.104Z,71.00
2022-09-02T07:26:29.195Z,70.72
2022-09-02T07:30:12.821Z,71.06
2022-09-02T07:33:58.754Z,70.77
2022-09-02T07:37:41.551Z,70.43
2022-09-02T07:41:27.002Z,70.29
2022-09-02T07:45:15.552Z,70.40
2022-09-02T07:48:58.512Z,70.14
2022-09-02T07:52:41.299Z,70.26
2022-09-02T07:56:26.330Z,70.82
2022-09-02T08:00:13.631Z,68.25
2022-09-02T08:03:57.933Z,67.41
2022-09-02T08:07:45.287Z,67.52
2022-09-02T08:11:28.923Z,67.84
2022-09-02T08:15:14.387Z,67.40
2022-09-02T08:18:58.093Z,66.88
2022-09-02T08:22:41.015Z,66.22
2022-09-02T08:26:24.156Z,65.20
2022-09-02T08:30:09.976Z,65.07
2022-09-02T08:33:54.421Z,63.95
2022-09-02T08:37:38.097Z,62.81
2022-09-02T08:41:23.631Z,61.88
2022-09-02T08:45:12.757Z,60.86
2022-09-02T08:48:59.468Z,59.74
2022-09-02T08:52:45.572Z,58.67
2022-09-02T08:56:28.449Z,58.03
2022-09-02T09:00:13.419Z,56.29
2022-09-02T09:04:09.176Z,55.97
2022-09-02T09:08:02.381Z,55.99
2022-09-02T09:11:48.723Z,55.49
2022-09-02T09:15:36.930Z,55.01
2022-09-02T09:19:28.628Z,54.75
2022-09-02T09:23:34.213Z,54.06
2022-09-02T09:27:19.160Z,53.96
2022-09-02T09:31:02.019Z,53.61
2022-09-02T09:35:03.150Z,53.36
2022-09-02T09:38:45.941Z,53.41
2022-09-02T09:42:33.814Z,53.28
2022-09-02T09:46:27.680Z,52.32
2022-09-02T09:50:16.010Z,52.76
2022-09-02T09:54:16.084Z,52.49
2022-09-02T09:58:09.381Z,52.50
2022-09-02T10:01:52.495Z,52.07
2022-09-02T10:05:38.104Z,52.17
2022-09-02T10:09:31.955Z,52.25
2022-09-02T10:13:22.483Z,52.29
2022-09-02T10:17:15.820Z,52.38
2022-09-02T10:21:16.323Z,51.01
2022-09-02T10:25:09.728Z,50.62
2022-09-02T10:29:31.151Z,50.67
2022-09-02T10:33:31.566Z,50.79
2022-09-02T10:37:19.506Z,50.87
2022-09-02T10:41:11.551Z,50.35
2022-09-02T10:45:00.750Z,50.11
2022-09-02T10:48:52.922Z,49.77
2022-09-02T10:53:03.729Z,48.67
2022-09-02T10:56:53.567Z,48.80
2022-09-02T11:00:40.690Z,48.61
2022-09-02T11:04:30.555Z,49.03
2022-09-02T11:08:19.691Z,48.73
2022-09-02T11:12:07.626Z,48.67
2022-09-02T11:15:54.080Z,48.89
2022-09-02T11:19:41.255Z,48.26
2022-09-02T11:23:34.097Z,47.42
2022-09-02T11:27:41.715Z,47.37
2022-09-02T11:31:28.984Z,46.76
2022-09-02T11:35:16.277Z,47.54
2022-09-02T11:39:02.961Z,47.28
2022-09-02T11:42:59.885Z,46.68
2022-09-02T11:47:07.904Z,46.66
2022-09-02T11:51:11.868Z,46.55
2022-09-02T11:55:05.816Z,45.59
2022-09-02T11:58:49.500Z,45.50
2022-09-02T12:02:36.681Z,45.84
2022-09-02T12:06:20.981Z,45.63
2022-09-02T12:10:08.722Z,44.49
2022-09-02T12:13:51.516Z,44.57
2022-09-02T12:17:55.513Z,44.33
2022-09-02T12:22:16.705Z,43.88
2022-09-02T12:26:03.725Z,44.66
2022-09-02T12:29:46.586Z,43.86
2022-09-02T12:33:31.269Z,43.45
2022-09-02T12:37:54.256Z,43.26
2022-09-02T12:41:44.368Z,43.23
2022-09-02T12:45:32.359Z,42.60
2022-09-02T12:49:28.420Z,42.83
2022-09-02T12:53:36.176Z,41.74
2022-09-02T12:57:20.800Z,41.81
2022-09-02T13:01:14.387Z,41.89
2022-09-02T13:05:04.864Z,42.01
2022-09-02T13:13:34.442Z,39.89
2022-09-02T13:17:39.925Z,41.08
2022-09-02T13:21:43.786Z,40.78
2022-09-02T13:25:47.086Z,40.35
2022-09-02T13:29:53.036Z,40.42
2022-09-02T13:33:39.411Z,38.57
2022-09-02T13:37:32.897Z,38.93
2022-09-02T13:41:29.258Z,38.20
2022-09-02T13:45:18.757Z,37.39
2022-09-02T13:49:01.582Z,37.93
2022-09-02T13:53:34.647Z,37.74
2022-09-02T13:56:50.220Z,36.78
2022-09-02T14:00:36.184Z,36.49
2022-09-02T14:04:19.500Z,37.18
2022-09-02T14:08:08.140Z,37.36
2022-09-02T14:11:51.321Z,36.22
2022-09-02T14:15:36.047Z,36.49
2022-09-02T14:19:25.667Z,35.48
2022-09-02T14:23:09.060Z,35.71
2022-09-02T14:26:53.352Z,35.08
2022-09-02T14:30:39.514Z,34.14
2022-09-02T14:34:39.024Z,33.73
2022-09-02T14:38:24.524Z,35.35
2022-09-02T14:42:07.783Z,34.76
2022-09-02T14:45:52.007Z,34.79
2022-09-02T14:49:39.324Z,34.25
2022-09-02T14:53:23.224Z,33.69
2022-09-02T14:57:06.848Z,33.27
2022-09-02T15:00:53.745Z,32.14
2022-09-02T15:04:36.493Z,31.35
2022-09-02T15:08:19.281Z,30.82
2022-09-02T15:12:02.912Z,31.45
2022-09-02T15:15:46.053Z,31.32
2022-09-02T15:19:33.162Z,30.98
2022-09-02T15:23:16.203Z,30.20
2022-09-02T15:26:59.406Z,30.40
2022-09-02T15:30:42.268Z,29.81
2022-09-02T15:34:25.385Z,29.79
2022-09-02T15:38:10.559Z,29.35
2022-09-02T15:41:55.354Z,29.09
2022-09-02T15:45:39.687Z,29.24
2022-09-02T15:49:23.614Z,28.50
2022-09-02T15:53:06.525Z,27.66
2022-09-02T15:56:55.426Z,27.80
2022-09-02T16:00:39.480Z,27.11
2022-09-02T16:04:22.595Z,27.48
2022-09-02T16:08:05.405Z,28.63
2022-09-02T16:11:50.675Z,28.81
2022-09-02T16:15:34.419Z,28.79
2022-09-02T16:19:17.823Z,29.46
2022-09-02T16:23:00.569Z,29.81
2022-09-02T16:26:43.487Z,30.16
2022-09-02T16:30:29.997Z,30.96
2022-09-02T16:34:14.602Z,31.27
2022-09-02T16:37:57.446Z,31.41
2022-09-02T16:41:43.834Z,31.71
2022-09-02T16:45:27.981Z,31.44
2022-09-02T16:49:11.726Z,32.74
2022-09-02T16:52:55.244Z,33.39
2022-09-02T16:56:38.566Z,34.47
2022-09-02T17:00:23.450Z,36.57
2022-09-02T17:04:08.710Z,37.38
2022-09-02T17:07:55.461Z,37.74
2022-09-02T17:11:41.171Z,38.30
2022-09-02T17:15:24.472Z,39.08
2022-09-02T17:19:08.687Z,39.87
2022-09-02T17:22:51.673Z,40.34
2022-09-02T17:26:36.056Z,41.14
2022-09-02T17:30:18.974Z,40.90
2022-09-02T17:34:03.892Z,41.95
2022-09-02T17:37:48.146Z,42.37
2022-09-02T17:41:48.330Z,43.30
2022-09-02T17:45:31.150Z,43.16
2022-09-02T17:49:17.217Z,44.36
2022-09-02T17:53:01.940Z,43.85
2022-09-02T17:57:05.317Z,44.42
2022-09-02T18:00:50.323Z,44.55
2022-09-02T18:04:47.483Z,44.56
2022-09-02T18:08:37.325Z,45.19
2022-09-02T18:12:20.389Z,45.57
2022-09-02T18:16:16.394Z,45.92
2022-09-02T18:20:14.062Z,46.34
2022-09-02T18:24:03.098Z,46.35
2022-09-02T18:27:53.041Z,46.61
2022-09-02T18:31:42.094Z,46.90
2022-09-02T18:35:32.663Z,47.27
2022-09-02T18:39:44.810Z,47.29
2022-09-02T18:43:36.909Z,47.83
2022-09-02T18:47:22.130Z,47.89
2022-09-02T18:51:10.304Z,47.67
2022-09-02T18:55:02.838Z,48.13
2022-09-02T18:58:48.199Z,48.49
2022-09-02T19:02:36.746Z,48.55
2022-09-02T19:06:21.938Z,48.40
2022-09-02T19:10:09.011Z,48.55
2022-09-02T19:13:55.542Z,48.73
2022-09-02T19:17:39.670Z,49.01
2022-09-02T19:21:27.258Z,48.86
2022-09-02T19:25:13.564Z,48.81
2022-09-02T19:28:57.119Z,49.26
2022-09-02T19:32:43.814Z,49.55
2022-09-02T19:36:31.260Z,49.44
2022-09-02T19:40:21.390Z,50.09
2022-09-02T19:44:04.453Z,50.05
2022-09-02T19:51:50.182Z,50.53
2022-09-02T19:55:35.857Z,50.96
2022-09-02T19:59:18.629Z,50.96
2022-09-02T20:03:01.507Z,51.00
2022-09-02T20:06:44.501Z,51.13
2022-09-02T20:10:27.990Z,51.27
2022-09-02T20:14:14.017Z,51.62
2022-09-02T20:18:00.823Z,51.97
2022-09-02T20:21:45.513Z,52.60
2022-09-02T20:25:35.510Z,52.47
2022-09-02T20:29:34.176Z,52.22
2022-09-02T20:33:19.316Z,52.87
2022-09-02T20:37:10.864Z,53.37
2022-09-02T20:40:59.784Z,53.06
2022-09-02T20:44:51.070Z,54.11
2022-09-02T20:48:44.194Z,53.60
2022-09-02T20:52:31.418Z,53.58
2022-09-02T20:56:21.277Z,54.00
2022-09-02T21:00:09.280Z,54.31
2022-09-02T21:03:55.972Z,54.09
2022-09-02T21:07:45.516Z,54.35
2022-09-02T21:11:34.041Z,54.73
2022-09-02T21:15:28.791Z,54.63
2022-09-02T21:19:16.280Z,54.73
2022-09-02T21:23:01.931Z,55.07
2022-09-02T21:26:49.906Z,55.28
2022-09-02T21:30:41.443Z,55.85
2022-09-02T21:34:27.898Z,56.79
2022-09-02T21:38:12.776Z,57.76
2022-09-02T21:42:04.438Z,57.87
2022-09-02T21:45:54.340Z,58.35
2022-09-02T21:49:54.179Z,57.83
2022-09-02T21:53:46.212Z,57.55
2022-09-02T21:57:39.735Z,57.33
2022-09-02T22:01:42.170Z,57.57
2022-09-02T22:05:35.026Z,57.65
2022-09-02T22:09:21.187Z,58.00
2022-09-02T22:13:04.719Z,58.14
2022-09-02T22:16:56.019Z,58.60
2022-09-02T22:20:44.092Z,58.04
2022-09-02T22:24:29.719Z,58.78
2022-09-02T22:28:14.861Z,58.75
2022-09-02T22:32:00.780Z,58.79
2022-09-02T22:35:56.441Z,58.14
2022-09-02T22:39:43.725Z,58.22
2022-09-02T22:43:32.439Z,58.20
2022-09-02T22:47:43.171Z,58.28
2022-09-02T22:51:47.536Z,58.55
2022-09-02T22:55:46.581Z,58.50
2022-09-02T22:59:38.776Z,58.67
2022-09-02T23:03:26.863Z,58.62
2022-09-02T23:07:13.379Z,58.91
2022-09-02T23:11:00.200Z,58.69
2022-09-02T23:14:47.556Z,59.03
2022-09-02T23:18:37.740Z,58.92
2022-09-02T23:22:34.429Z,59.21
2022-09-02T23:26:31.839Z,60.18
2022-09-02T23:30:14.887Z,59.00
2022-09-02T23:34:06.902Z,59.56
2022-09-02T23:38:02.908Z,59.25
2022-09-02T23:41:46.897Z,59.72
2022-09-02T23:45:32.136Z,59.20
2022-09-02T23:49:23.126Z,59.24
2022-09-02T23:53:10.681Z,59.39
2022-09-02T23:57:02.353Z,59.26
